Time;durP1;ratioP1;P1;durP2;ratioP2;P2;SDS_P1;SDS_P2;PMS_P1;PMS_P2;Temp;Humidity;BMP_temperature;BMP_pressure;BME280_temperature;BME280_humidity;BME280_pressure;Samples;Min_cycle;Max_cycle;Signal;HPM_P1;HPM_P2
2022/05/05 00:01:00;;;;;;;6.23;5.63;;;17.80;69.30;;;-142.21;100.00;112049.66;5054408;28;20761;-80
2022/05/05 00:03:27;;;;;;;6.63;5.93;;;17.80;69.10;;;-142.21;100.00;112049.66;5054941;28;20523;-80
2022/05/05 00:05:54;;;;;;;7.00;6.33;;;17.80;69.40;;;-142.21;100.00;112049.66;5053707;28;20460;-80
2022/05/05 00:08:24;;;;;;;6.50;5.90;;;17.70;70.10;;;-142.21;100.00;112049.66;5054250;28;20444;-80
2022/05/05 00:16:22;;;;;;;7.27;6.50;;;17.60;70.00;;;-142.21;100.00;112049.66;5034612;28;20985;-80
2022/05/05 00:18:49;;;;;;;7.47;6.37;;;17.60;69.70;;;-142.21;100.00;112049.66;5033875;28;20548;-81
2022/05/05 00:21:16;;;;;;;6.80;6.00;;;17.60;69.50;;;-142.21;100.00;112049.66;5034105;28;21029;-81
2022/05/05 00:23:43;;;;;;;6.03;5.43;;;17.70;69.30;;;-142.21;100.00;112049.66;5034018;28;20524;-80
2022/05/05 00:26:10;;;;;;;10.37;6.70;;;17.70;69.00;;;-142.21;100.00;112049.66;5034272;28;20534;-79
2022/05/05 00:28:39;;;;;;;6.07;5.43;;;17.70;69.10;;;-142.21;100.00;112049.66;5033906;28;20445;-80
2022/05/05 00:31:06;;;;;;;6.97;6.27;;;17.70;68.90;;;-142.21;100.00;112049.66;5034314;28;20503;-80
2022/05/05 00:33:33;;;;;;;6.40;5.80;;;17.80;68.70;;;-142.21;100.00;112049.66;5034174;28;20467;-79
2022/05/05 00:36:01;;;;;;;6.80;5.73;;;17.80;68.50;;;-142.21;100.00;112049.66;5033150;28;20548;-80
2022/05/05 00:38:28;;;;;;;7.23;6.23;;;17.70;68.80;;;-142.21;100.00;112049.66;5033932;28;20505;-80
2022/05/05 00:40:55;;;;;;;5.90;5.33;;;17.70;69.20;;;-142.21;100.00;112049.66;5045945;28;20480;-80
2022/05/05 00:43:23;;;;;;;8.33;5.97;;;17.70;68.80;;;-142.21;100.00;112049.66;5033757;28;20536;-80
2022/05/05 00:45:51;;;;;;;6.93;6.20;;;17.70;69.50;;;-142.21;100.00;112049.66;5033205;28;20507;-79
2022/05/05 00:48:19;;;;;;;10.67;6.63;;;17.60;70.00;;;-142.21;100.00;112049.66;5033711;28;20452;-80
2022/05/05 00:50:46;;;;;;;7.27;6.17;;;17.50;70.50;;;-142.21;100.00;112049.66;5033070;28;20934;-80
2022/05/05 00:53:13;;;;;;;10.00;6.13;;;17.50;70.70;;;-142.21;100.00;112049.66;5033823;28;20988;-80
2022/05/05 00:55:41;;;;;;;6.73;6.10;;;17.50;71.30;;;-142.21;100.00;112049.66;5033422;28;20537;-80
2022/05/05 00:58:09;;;;;;;6.43;5.93;;;17.50;70.90;;;-142.21;100.00;112049.66;5033233;28;21033;-80
2022/05/05 01:00:36;;;;;;;8.83;6.27;;;17.50;70.10;;;-142.21;100.00;112049.66;5033864;28;20508;-80
2022/05/05 01:03:09;;;;;;;6.87;6.27;;;17.50;70.10;;;-142.21;100.00;112049.66;5036470;28;20515;-80
2022/05/05 01:05:40;;;;;;;6.53;5.53;;;17.50;70.40;;;-142.21;100.00;112049.66;5053411;28;20514;-80
2022/05/05 01:08:08;;;;;;;8.27;6.13;;;17.40;70.60;;;-142.21;100.00;112049.66;5053213;28;20451;-80
2022/05/05 01:10:36;;;;;;;8.67;6.10;;;17.30;71.20;;;-142.21;100.00;112049.66;5053212;28;20445;-80
2022/05/05 01:13:04;;;;;;;6.13;5.53;;;17.40;70.40;;;-142.21;100.00;112049.66;5052133;28;20583;-80
2022/05/05 01:15:32;;;;;;;8.47;5.93;;;17.40;70.80;;;-142.21;100.00;112049.66;5052427;28;20437;-80
2022/05/05 01:17:59;;;;;;;7.10;6.40;;;17.40;71.20;;;-142.21;100.00;112049.66;5052492;28;20452;-80
2022/05/05 01:20:27;;;;;;;6.70;6.00;;;17.40;70.50;;;-142.21;100.00;112049.66;5053059;28;20451;-80
2022/05/05 01:22:56;;;;;;;6.90;5.63;;;17.40;70.90;;;-142.21;100.00;112049.66;5052913;28;20487;-80
2022/05/05 01:28:15;;;;;;;6.50;5.90;;;17.40;71.90;;;-142.21;100.00;112049.66;5053050;28;20547;-79
2022/05/05 01:30:45;;;;;;;6.93;5.63;;;17.40;71.60;;;-142.21;100.00;112049.66;5052487;28;20472;-80
2022/05/05 01:33:15;;;;;;;8.47;6.07;;;17.30;71.30;;;-142.21;100.00;112049.66;5052885;28;20451;-80
2022/05/05 01:35:44;;;;;;;6.63;6.03;;;17.40;71.60;;;-142.21;100.00;112049.66;5052447;28;20520;-79
2022/05/05 01:38:16;;;;;;;8.00;6.00;;;17.40;71.70;;;-142.21;100.00;112049.66;5052963;28;20611;-80
2022/05/05 01:40:46;;;;;;;7.57;5.63;;;17.30;72.30;;;-142.21;100.00;112049.66;5052265;28;20517;-80
2022/05/05 01:43:14;;;;;;;8.10;6.03;;;17.40;71.60;;;-142.21;100.00;112049.66;5052998;28;20511;-79
2022/05/05 01:45:42;;;;;;;6.90;6.20;;;17.30;71.60;;;-142.21;100.00;112049.66;5052410;28;20452;-79
2022/05/05 01:48:11;;;;;;;6.43;5.83;;;17.30;71.80;;;-142.21;100.00;112049.66;5053016;28;20494;-79
2022/05/05 01:50:39;;;;;;;6.57;5.97;;;17.30;71.80;;;-142.21;100.00;112049.66;5052861;28;20790;-79
2022/05/05 01:53:07;;;;;;;9.37;6.23;;;17.40;71.90;;;-142.21;100.00;112049.66;5052307;28;20481;-79
2022/05/05 01:55:35;;;;;;;6.53;5.87;;;17.30;72.00;;;-142.21;100.00;112049.66;5052664;28;20770;-79
2022/05/05 01:58:04;;;;;;;6.97;6.30;;;17.30;71.70;;;-142.21;100.00;112049.66;5052090;28;20535;-79
2022/05/05 02:00:32;;;;;;;6.57;5.97;;;17.40;71.50;;;-142.21;100.00;112049.66;5052660;28;20872;-78
2022/05/05 02:03:00;;;;;;;8.47;5.60;;;17.30;70.70;;;-142.21;100.00;112049.66;5052184;28;20484;-79
2022/05/05 02:05:27;;;;;;;5.77;5.27;;;17.30;70.80;;;-142.21;100.00;112049.66;5052189;28;20937;-79
2022/05/05 02:07:55;;;;;;;6.63;5.67;;;17.40;70.60;;;-142.21;100.00;112049.66;5052139;28;20472;-79
2022/05/05 02:10:22;;;;;;;6.23;5.60;;;17.40;70.30;;;-142.21;100.00;112049.66;5052448;28;20506;-78
2022/05/05 02:12:53;;;;;;;7.00;6.30;;;17.30;70.40;;;-142.21;100.00;112049.66;5051870;28;20563;-81
2022/05/05 02:15:20;;;;;;;7.13;6.03;;;17.30;70.40;;;-142.21;100.00;112049.66;5052179;28;20436;-80
2022/05/05 02:17:48;;;;;;;7.00;6.27;;;17.30;70.30;;;-142.21;100.00;112049.66;5051923;28;20538;-80
2022/05/05 02:20:16;;;;;;;6.93;6.23;;;17.30;70.20;;;-142.21;100.00;112049.66;5051924;28;20447;-80
2022/05/05 02:22:43;;;;;;;7.00;6.30;;;17.30;69.80;;;-142.21;100.00;112049.66;5051747;28;20871;-79
2022/05/05 02:25:12;;;;;;;6.80;6.20;;;17.30;69.90;;;-142.21;100.00;112049.66;5037961;28;20920;-79
2022/05/05 02:27:52;;;;;;;7.53;6.77;;;17.40;70.00;;;-142.21;100.00;112049.66;5054914;28;20498;-79
2022/05/05 02:30:22;;;;;;;8.17;6.53;;;17.40;70.20;;;-142.21;100.00;112049.66;5056594;28;20575;-79
2022/05/05 02:32:50;;;;;;;7.47;6.77;;;17.50;70.00;;;-142.21;100.00;112049.66;5055891;28;20476;-79
2022/05/05 02:35:19;;;;;;;7.27;6.47;;;17.50;70.00;;;-142.21;100.00;112049.66;5056407;28;20827;-79
2022/05/05 02:40:32;;;;;;;6.27;5.67;;;17.60;69.60;;;-142.21;100.00;112049.66;5056303;28;20415;-79
2022/05/05 02:43:01;;;;;;;6.43;5.83;;;17.60;69.30;;;-142.21;100.00;112049.66;5055313;28;20891;-79
2022/05/05 02:45:29;;;;;;;7.33;6.63;;;17.70;69.40;;;-142.21;100.00;112049.66;5056256;28;20448;-80
2022/05/05 02:47:56;;;;;;;6.53;5.93;;;17.70;70.10;;;-142.21;100.00;112049.66;5055586;28;20490;-80
2022/05/05 02:50:24;;;;;;;7.67;6.70;;;17.80;69.40;;;-142.21;100.00;112049.66;5056124;28;20865;-78
2022/05/05 02:52:51;;;;;;;7.10;6.40;;;17.80;69.50;;;-142.21;100.00;112049.66;5055074;28;20441;-79
2022/05/05 02:55:17;;;;;;;7.37;6.67;;;17.70;69.40;;;-142.21;100.00;112049.66;5055914;28;20541;-80
2022/05/05 02:57:45;;;;;;;7.23;6.03;;;17.60;69.30;;;-142.21;100.00;112049.66;5055285;28;20455;-79
2022/05/05 03:00:15;;;;;;;7.17;6.43;;;17.60;69.40;;;-142.21;100.00;112049.66;5055460;28;20534;-79
2022/05/05 03:02:44;;;;;;;7.70;6.90;;;17.60;69.80;;;-142.21;100.00;112049.66;5055415;28;20460;-79
2022/05/05 03:05:13;;;;;;;6.30;5.70;;;17.50;70.10;;;-142.21;100.00;112049.66;5055777;28;20543;-80
2022/05/05 03:07:41;;;;;;;9.00;7.33;;;17.50;70.20;;;-142.21;100.00;112049.66;5070819;28;20781;-80
2022/05/05 03:10:10;;;;;;;7.47;6.20;;;17.40;70.40;;;-142.21;100.00;112049.66;5055168;28;20486;-79
2022/05/05 03:12:37;;;;;;;7.50;6.70;;;17.40;70.80;;;-142.21;100.00;112049.66;5055535;28;20446;-80
2022/05/05 03:15:06;;;;;;;7.20;6.50;;;17.40;71.10;;;-142.21;100.00;112049.66;5054706;28;20917;-80
2022/05/05 03:17:35;;;;;;;7.40;6.60;;;17.30;71.70;;;-142.21;100.00;112049.66;5055399;28;20452;-79
2022/05/05 03:20:03;;;;;;;7.23;6.53;;;17.30;71.60;;;-142.21;100.00;112049.66;5054959;28;20539;-80
2022/05/05 03:22:30;;;;;;;7.40;6.70;;;17.30;72.20;;;-142.21;100.00;112049.66;5054882;28;21015;-80
2022/05/05 03:24:58;;;;;;;7.10;6.40;;;17.30;71.40;;;-142.21;100.00;112049.66;5054860;28;20484;-80
2022/05/05 03:27:25;;;;;;;7.20;6.50;;;17.30;71.60;;;-142.21;100.00;112049.66;5055312;28;20502;-80
2022/05/05 03:29:52;;;;;;;7.57;6.17;;;17.20;72.30;;;-142.21;100.00;112049.66;5054625;28;20504;-80
2022/05/05 03:32:19;;;;;;;7.20;6.57;;;17.20;72.20;;;-142.21;100.00;112049.66;5054921;28;20476;-79
2022/05/05 03:34:48;;;;;;;6.90;6.20;;;17.20;71.90;;;-142.21;100.00;112049.66;5054874;28;20530;-79
2022/05/05 03:37:15;;;;;;;7.03;6.40;;;17.30;72.00;;;-142.21;100.00;112049.66;5054473;28;20540;-80
2022/05/05 03:39:42;;;;;;;7.47;6.07;;;17.30;72.00;;;-142.21;100.00;112049.66;5055093;28;20487;-79
2022/05/05 03:42:10;;;;;;;6.70;6.10;;;17.30;71.70;;;-142.21;100.00;112049.66;5054207;28;20537;-80
2022/05/05 03:44:37;;;;;;;6.70;6.10;;;17.30;71.60;;;-142.21;100.00;112049.66;5054889;28;20483;-80
2022/05/05 03:47:05;;;;;;;9.27;6.27;;;17.30;71.70;;;-142.21;100.00;112049.66;5054355;28;20451;-80
2022/05/05 03:49:32;;;;;;;7.57;6.17;;;17.30;71.80;;;-142.21;100.00;112049.66;5055378;28;20808;-80
2022/05/05 03:52:01;;;;;;;7.13;6.33;;;17.30;72.00;;;-142.21;100.00;112049.66;5053838;28;20484;-80
2022/05/05 03:54:28;;;;;;;7.23;6.53;;;17.10;72.20;;;-142.21;100.00;112049.66;5054618;28;20451;-79
2022/05/05 03:56:55;;;;;;;7.27;6.57;;;17.10;72.20;;;-142.21;100.00;112049.66;5054807;28;20535;-79
2022/05/05 03:59:23;;;;;;;7.07;6.47;;;17.10;72.30;;;-142.21;100.00;112049.66;5055003;28;20527;-79
2022/05/05 04:01:50;;;;;;;7.07;6.47;;;17.20;72.50;;;-142.21;100.00;112049.66;5054290;28;20902;-79
2022/05/05 04:04:19;;;;;;;7.27;6.50;;;17.20;71.70;;;-142.21;100.00;112049.66;5054896;28;20910;-79
2022/05/05 04:06:47;;;;;;;7.87;6.60;;;17.20;71.40;;;-142.21;100.00;112049.66;5054587;28;20843;-79
2022/05/05 04:09:15;;;;;;;9.40;6.90;;;17.20;71.60;;;-142.21;100.00;112049.66;5054377;28;20452;-80
2022/05/05 04:11:43;;;;;;;8.27;7.03;;;17.20;71.80;;;-142.21;100.00;112049.66;5054621;28;20539;-80
2022/05/05 04:14:10;;;;;;;6.97;6.30;;;17.20;71.60;;;-142.21;100.00;112049.66;5053753;28;20651;-80
2022/05/05 04:16:38;;;;;;;7.80;6.93;;;17.10;71.60;;;-142.21;100.00;112049.66;5034607;28;20526;-79
2022/05/05 04:19:05;;;;;;;7.37;6.63;;;17.00;72.90;;;-142.21;100.00;112049.66;5033687;28;20438;-81
2022/05/05 04:21:35;;;;;;;7.30;6.60;;;17.00;72.80;;;-142.21;100.00;112049.66;5034237;28;20537;-80
2022/05/05 04:24:06;;;;;;;9.43;7.00;;;17.00;72.30;;;-142.21;100.00;112049.66;5033768;28;20560;-80
2022/05/05 04:26:35;;;;;;;8.03;6.20;;;17.00;72.50;;;-142.21;100.00;112049.66;5034112;28;20437;-80
2022/05/05 04:29:04;;;;;;;8.63;6.97;;;17.10;72.20;;;-142.21;100.00;112049.66;5043415;28;20507;-80
2022/05/05 04:31:33;;;;;;;6.93;6.33;;;17.10;72.00;;;-142.21;100.00;112049.66;5054071;28;20551;-80
2022/05/05 04:34:00;;;;;;;9.40;6.67;;;17.20;72.30;;;-142.21;100.00;112049.66;5053297;28;20451;-80
2022/05/05 04:36:27;;;;;;;7.70;6.83;;;17.20;72.50;;;-142.21;100.00;112049.66;5053983;28;20552;-80
2022/05/05 04:38:55;;;;;;;8.87;6.97;;;17.20;73.50;;;-142.21;100.00;112049.66;5053375;28;20487;-80
2022/05/05 04:41:22;;;;;;;21.87;11.73;;;17.30;72.90;;;-142.21;100.00;112049.66;5054321;28;20543;-81
2022/05/05 04:43:50;;;;;;;25.33;11.33;;;17.30;73.20;;;-142.21;100.00;112049.66;5053994;28;20582;-80
2022/05/05 04:46:18;;;;;;;11.80;8.30;;;17.40;74.00;;;-142.21;100.00;112049.66;5053812;28;20444;-80
2022/05/05 04:48:45;;;;;;;11.67;7.33;;;17.50;73.50;;;-142.21;100.00;112049.66;5053125;28;20854;-80
2022/05/05 04:51:12;;;;;;;9.50;7.73;;;17.50;72.50;;;-142.21;100.00;112049.66;5053009;28;20495;-80
2022/05/05 04:53:39;;;;;;;7.50;6.80;;;17.60;72.50;;;-142.21;100.00;112049.66;5053655;28;20444;-80
2022/05/05 04:56:08;;;;;;;7.37;6.67;;;17.70;72.70;;;-142.21;100.00;112049.66;5053222;28;20535;-80
2022/05/05 04:58:35;;;;;;;8.57;6.77;;;17.70;71.40;;;-142.21;100.00;112049.66;5053478;28;20487;-80
2022/05/05 05:01:04;;;;;;;7.10;6.40;;;17.80;71.00;;;-142.21;100.00;112049.66;5052649;28;20449;-79
2022/05/05 05:03:35;;;;;;;7.87;6.50;;;17.80;70.70;;;-142.21;100.00;112049.66;5053232;28;20529;-80
2022/05/05 05:06:03;;;;;;;7.70;6.97;;;17.80;70.30;;;-142.21;100.00;112049.66;5053213;28;20468;-80
2022/05/05 05:08:30;;;;;;;7.70;6.90;;;17.90;70.50;;;-142.21;100.00;112049.66;5053519;28;20456;-80
2022/05/05 05:10:58;;;;;;;7.00;6.30;;;17.90;69.70;;;-142.21;100.00;112049.66;5052693;28;20452;-80
2022/05/05 05:13:25;;;;;;;8.37;7.47;;;17.90;70.30;;;-142.21;100.00;112049.66;5053056;28;20508;-80
2022/05/05 05:15:52;;;;;;;7.10;6.40;;;17.90;70.10;;;-142.21;100.00;112049.66;5052446;28;20824;-80
2022/05/05 05:18:21;;;;;;;6.90;6.20;;;17.90;70.30;;;-142.21;100.00;112049.66;5053087;28;20444;-80
2022/05/05 05:20:48;;;;;;;6.40;5.80;;;17.90;69.80;;;-142.21;100.00;112049.66;5053389;28;20479;-79
2022/05/05 05:23:16;;;;;;;10.57;6.47;;;18.00;69.60;;;-142.21;100.00;112049.66;5052522;28;20487;-81
2022/05/05 05:25:44;;;;;;;6.83;6.23;;;18.00;70.30;;;-142.21;100.00;112049.66;5033490;28;20437;-80
2022/05/05 05:28:13;;;;;;;7.50;6.77;;;18.00;70.50;;;-142.21;100.00;112049.66;5032177;28;20461;-79
2022/05/05 05:30:41;;;;;;;7.23;6.53;;;18.10;70.70;;;-142.21;100.00;112049.66;5046801;28;20468;-81
2022/05/05 05:33:08;;;;;;;6.83;6.20;;;18.10;69.40;;;-142.21;100.00;112049.66;5052098;28;20452;-80
2022/05/05 05:35:37;;;;;;;7.33;6.53;;;18.10;69.70;;;-142.21;100.00;112049.66;5052733;28;20487;-78
2022/05/05 05:38:04;;;;;;;7.03;6.40;;;18.20;68.90;;;-142.21;100.00;112049.66;5052306;28;20479;-81
2022/05/05 05:40:32;;;;;;;7.00;6.30;;;18.10;68.30;;;-142.21;100.00;112049.66;5052689;28;20491;-80
2022/05/05 05:42:59;;;;;;;7.17;6.47;;;18.20;68.30;;;-142.21;100.00;112049.66;5052042;28;20454;-80
2022/05/05 05:45:27;;;;;;;6.77;5.97;;;18.20;68.40;;;-142.21;100.00;112049.66;5052417;28;20579;-80
2022/05/05 05:47:54;;;;;;;9.27;6.73;;;18.20;68.20;;;-142.21;100.00;112049.66;5052014;28;20444;-80
2022/05/05 05:50:22;;;;;;;6.70;5.87;;;18.10;68.80;;;-142.21;100.00;112049.66;5052672;28;20539;-80
2022/05/05 05:52:50;;;;;;;7.03;6.33;;;18.10;68.60;;;-142.21;100.00;112049.66;5052901;28;20578;-80
2022/05/05 05:55:18;;;;;;;7.20;6.50;;;18.20;69.40;;;-142.21;100.00;112049.66;5052138;28;20502;-80
2022/05/05 05:57:45;;;;;;;7.43;6.70;;;18.20;68.50;;;-142.21;100.00;112049.66;5052543;28;20476;-81
2022/05/05 06:00:14;;;;;;;6.83;6.23;;;18.20;68.50;;;-142.21;100.00;112049.66;5051523;28;21004;-80
2022/05/05 06:05:26;;;;;;;7.20;6.50;;;18.20;69.00;;;-142.21;100.00;112049.66;5052083;28;20975;-80
2022/05/05 06:07:59;;;;;;;6.73;6.07;;;18.20;69.10;;;-142.21;100.00;112049.66;5052463;28;20532;-79
2022/05/05 06:10:26;;;;;;;7.47;6.73;;;18.20;69.30;;;-142.21;100.00;112049.66;5052697;28;20443;-80
2022/05/05 06:12:54;;;;;;;7.87;7.07;;;18.20;68.80;;;-142.21;100.00;112049.66;5052018;28;20836;-79
2022/05/05 06:15:22;;;;;;;7.53;6.83;;;18.20;68.60;;;-142.21;100.00;112049.66;5052334;28;20457;-80
2022/05/05 06:17:50;;;;;;;7.63;6.93;;;18.20;68.80;;;-142.21;100.00;112049.66;5052526;28;20490;-78
2022/05/05 06:20:17;;;;;;;8.63;7.60;;;18.20;69.50;;;-142.21;100.00;112049.66;5051749;28;20447;-78
2022/05/05 06:22:44;;;;;;;8.53;7.73;;;18.20;68.50;;;-142.21;100.00;112049.66;5052620;28;20479;-76
2022/05/05 06:25:13;;;;;;;9.20;8.23;;;18.20;69.00;;;-142.21;100.00;112049.66;5051721;28;20492;-78
2022/05/05 06:27:41;;;;;;;10.40;7.80;;;18.20;68.50;;;-142.21;100.00;112049.66;5052327;28;20459;-78
2022/05/05 06:30:11;;;;;;;8.23;7.20;;;18.20;68.90;;;-142.21;100.00;112049.66;5051758;28;20504;-79
2022/05/05 06:32:39;;;;;;;8.10;7.30;;;18.20;69.40;;;-142.21;100.00;112049.66;5052296;28;20491;-79
2022/05/05 06:35:07;;;;;;;9.40;8.37;;;18.20;68.80;;;-142.21;100.00;112049.66;5052253;28;20462;-78
2022/05/05 06:37:34;;;;;;;9.07;7.47;;;18.20;68.90;;;-142.21;100.00;112049.66;5052613;28;20455;-79
2022/05/05 06:40:01;;;;;;;7.90;7.10;;;18.20;69.00;;;-142.21;100.00;112049.66;5051882;28;20968;-79
2022/05/05 06:42:30;;;;;;;8.53;7.53;;;18.30;68.90;;;-142.21;100.00;112049.66;5052014;28;20920;-78
2022/05/05 06:44:58;;;;;;;9.63;8.73;;;18.30;68.80;;;-142.21;100.00;112049.66;5051477;28;20586;-78
2022/05/05 06:47:25;;;;;;;10.00;8.03;;;18.20;68.70;;;-142.21;100.00;112049.66;5051966;28;21035;-78
2022/05/05 06:49:53;;;;;;;10.00;8.73;;;18.30;68.90;;;-142.21;100.00;112049.66;5051924;28;20444;-78
2022/05/05 06:52:20;;;;;;;9.33;8.33;;;18.30;68.60;;;-142.21;100.00;112049.66;5051899;28;20826;-78
2022/05/05 06:54:47;;;;;;;9.30;8.27;;;18.30;69.40;;;-142.21;100.00;112049.66;5051941;28;20888;-78
2022/05/05 06:57:15;;;;;;;9.97;8.57;;;18.40;68.30;;;-142.21;100.00;112049.66;5051538;28;20455;-78
2022/05/05 06:59:44;;;;;;;9.13;8.13;;;18.40;68.90;;;-142.21;100.00;112049.66;5051629;28;20807;-78
2022/05/05 07:02:12;;;;;;;9.63;8.50;;;18.40;69.10;;;-142.21;100.00;112049.66;5051684;28;20526;-79
2022/05/05 07:07:24;;;;;;;9.37;8.40;;;18.40;68.40;;;-142.21;100.00;112049.66;5052280;28;20416;-78
2022/05/05 07:12:36;;;;;;;8.60;7.53;;;18.40;67.60;;;-142.21;100.00;112049.66;5052576;28;20435;-78
2022/05/05 07:15:06;;;;;;;10.40;8.37;;;18.40;67.80;;;-142.21;100.00;112049.66;5054978;28;20511;-78
2022/05/05 07:17:34;;;;;;;10.13;8.07;;;18.40;68.30;;;-142.21;100.00;112049.66;5055974;28;20502;-78
2022/05/05 07:20:01;;;;;;;10.23;8.13;;;18.40;67.60;;;-142.21;100.00;112049.66;5054517;28;20483;-78
2022/05/05 07:22:28;;;;;;;9.97;7.90;;;18.40;67.90;;;-142.21;100.00;112049.66;5055596;28;20847;-78
2022/05/05 07:24:55;;;;;;;10.37;8.23;;;18.50;68.50;;;-142.21;100.00;112049.66;5055322;28;20488;-79
2022/05/05 07:27:22;;;;;;;8.73;7.80;;;18.50;68.30;;;-142.21;100.00;112049.66;5054949;28;20458;-78
2022/05/05 07:29:50;;;;;;;12.07;7.97;;;18.60;67.60;;;-142.21;100.00;112049.66;5055420;28;20507;-78
2022/05/05 07:32:18;;;;;;;9.53;7.77;;;18.60;67.20;;;-142.21;100.00;112049.66;5054933;28;20444;-78
2022/05/05 07:34:45;;;;;;;12.40;7.53;;;18.60;67.20;;;-142.21;100.00;112049.66;5070747;28;20440;-78
2022/05/05 07:37:13;;;;;;;10.57;7.57;;;18.50;69.00;;;-142.21;100.00;112049.66;5054496;28;20610;-78
2022/05/05 07:39:40;;;;;;;9.97;8.90;;;18.50;68.30;;;-142.21;100.00;112049.66;5055565;28;20471;-78
2022/05/05 07:42:09;;;;;;;11.73;9.27;;;18.50;67.80;;;-142.21;100.00;112049.66;5036922;28;20445;-78
2022/05/05 07:44:36;;;;;;;10.87;8.67;;;18.60;67.40;;;-142.21;100.00;112049.66;5035586;28;20488;-78
2022/05/05 07:47:04;;;;;;;11.37;8.90;;;18.60;66.70;;;-142.21;100.00;112049.66;5042646;28;20525;-79
2022/05/05 07:49:33;;;;;;;12.63;9.20;;;18.60;67.20;;;-142.21;100.00;112049.66;5054666;28;20534;-78
2022/05/05 07:52:00;;;;;;;9.43;8.43;;;18.70;67.10;;;-142.21;100.00;112049.66;5055224;28;20539;-78
2022/05/05 07:54:38;;;;;;;10.93;8.20;;;18.70;68.20;;;-142.21;100.00;112049.66;5055258;28;20444;-78
2022/05/05 07:57:08;;;;;;;8.43;7.63;;;18.70;68.00;;;-142.21;100.00;112049.66;5054345;28;20840;-77
2022/05/05 07:59:36;;;;;;;10.13;8.03;;;18.70;68.50;;;-142.21;100.00;112049.66;5055116;28;20871;-79
2022/05/05 08:02:08;;;;;;;13.37;9.83;;;18.70;68.80;;;-142.21;100.00;112049.66;5054149;28;20536;-78
2022/05/05 08:04:37;;;;;;;10.97;9.07;;;18.70;68.40;;;-142.21;100.00;112049.66;5035500;28;20639;-78
2022/05/05 08:07:05;;;;;;;11.50;9.80;;;18.70;67.70;;;-142.21;100.00;112049.66;5042834;28;20805;-78
2022/05/05 08:09:32;;;;;;;11.80;10.20;;;18.70;68.40;;;-142.21;100.00;112049.66;5069951;28;20452;-80
2022/05/05 08:12:00;;;;;;;12.00;9.77;;;18.70;68.20;;;-142.21;100.00;112049.66;5054889;28;20487;-78
2022/05/05 08:14:30;;;;;;;12.37;10.47;;;18.70;67.70;;;-142.21;100.00;112049.66;5054386;28;21064;-78
2022/05/05 08:16:58;;;;;;;12.47;10.97;;;18.70;68.40;;;-142.21;100.00;112049.66;5054702;28;20439;-77
2022/05/05 08:19:25;;;;;;;11.07;9.70;;;18.60;68.40;;;-142.21;100.00;112049.66;5058291;28;20494;-77
2022/05/05 08:21:54;;;;;;;12.70;10.57;;;18.60;68.90;;;-142.21;100.00;112049.66;5054549;28;20471;-76
2022/05/05 08:29:51;;;;;;;16.20;12.00;;;18.50;70.50;;;-142.21;100.00;112049.66;5054281;28;20506;-75
2022/05/05 08:32:18;;;;;;;14.90;12.00;;;18.50;70.40;;;-142.21;100.00;112049.66;5053578;28;20459;-75
2022/05/05 08:34:45;;;;;;;14.13;11.67;;;18.50;69.70;;;-142.21;100.00;112049.66;5054488;28;20444;-76
2022/05/05 08:37:14;;;;;;;14.03;11.83;;;18.50;70.20;;;-142.21;100.00;112049.66;5053631;28;20527;-75
2022/05/05 08:39:41;;;;;;;13.07;11.63;;;18.50;70.70;;;-142.21;100.00;112049.66;5069373;28;20544;-76
2022/05/05 08:42:09;;;;;;;13.80;12.27;;;18.50;71.20;;;-142.21;100.00;112049.66;5052446;28;20440;-76
2022/05/05 08:44:36;;;;;;;14.13;12.63;;;18.40;71.10;;;-142.21;100.00;112049.66;5054123;28;20927;-75
2022/05/05 08:47:06;;;;;;;13.60;11.97;;;18.40;71.30;;;-142.21;100.00;112049.66;5069718;28;20787;-75
2022/05/05 08:49:36;;;;;;;16.17;12.37;;;18.30;72.50;;;-142.21;100.00;112049.66;5054198;28;20470;-76
2022/05/05 08:52:08;;;;;;;14.63;13.00;;;18.30;71.30;;;-142.21;100.00;112049.66;5053787;28;20508;-75
2022/05/05 08:54:40;;;;;;;16.47;12.43;;;18.30;71.40;;;-142.21;100.00;112049.66;5054136;28;20475;-76
2022/05/05 08:57:07;;;;;;;16.03;12.60;;;18.20;71.50;;;-142.21;100.00;112049.66;5053123;28;20441;-74
2022/05/05 08:59:35;;;;;;;16.53;12.60;;;18.20;70.20;;;-142.21;100.00;112049.66;5068767;28;20536;-75
2022/05/05 09:02:02;;;;;;;17.53;12.70;;;18.10;71.00;;;-142.21;100.00;112049.66;5053375;28;20539;-76
2022/05/05 09:04:29;;;;;;;14.07;11.97;;;18.10;72.10;;;-142.21;100.00;112049.66;5052850;28;21175;-75
2022/05/05 09:06:56;;;;;;;18.80;13.07;;;18.10;70.70;;;-142.21;100.00;112049.66;5053485;28;20455;-75
2022/05/05 09:09:26;;;;;;;14.07;12.27;;;18.10;70.40;;;-142.21;100.00;112049.66;5052891;28;20790;-75
2022/05/05 09:12:16;;;;;;;17.20;13.03;;;18.10;70.80;;;-142.21;100.00;112049.66;5053427;28;20436;-76
2022/05/05 09:14:46;;;;;;;14.13;11.87;;;18.10;71.00;;;-142.21;100.00;112049.66;5039824;28;20507;-77
2022/05/05 09:17:16;;;;;;;14.63;12.60;;;18.20;71.20;;;-142.21;100.00;112049.66;5052706;28;20539;-75
2022/05/05 09:19:45;;;;;;;19.33;13.47;;;18.10;71.40;;;-142.21;100.00;112049.66;5053641;28;20448;-76
2022/05/05 09:22:17;;;;;;;16.07;12.33;;;18.10;71.90;;;-142.21;100.00;112049.66;5048589;28;20531;-76
2022/05/05 09:24:46;;;;;;;16.60;12.80;;;18.10;71.00;;;-142.21;100.00;112049.66;5050516;28;20511;-76
2022/05/05 09:27:33;;;;;;;19.27;12.07;;;18.10;70.00;;;-142.21;100.00;112049.66;5032940;28;20449;-77
2022/05/05 09:30:12;;;;;;;12.67;11.27;;;18.20;70.00;;;-142.21;100.00;112049.66;5050294;28;20468;-76
2022/05/05 09:32:42;;;;;;;13.27;11.10;;;18.20;70.90;;;-142.21;100.00;112049.66;5053014;28;20432;-77
2022/05/05 09:35:12;;;;;;;14.57;12.83;;;18.20;69.80;;;-142.21;100.00;112049.66;5052083;28;20445;-75
2022/05/05 09:37:44;;;;;;;15.17;12.57;;;18.20;70.50;;;-142.21;100.00;112049.66;5066914;28;20479;-77
2022/05/05 09:40:17;;;;;;;15.17;12.50;;;18.30;71.00;;;-142.21;100.00;112049.66;5051186;28;20432;-76
2022/05/05 09:42:49;;;;;;;16.93;11.93;;;18.30;71.90;;;-142.21;100.00;112049.66;5053092;28;20478;-77
2022/05/05 09:45:22;;;;;;;15.60;11.13;;;18.30;70.80;;;-142.21;100.00;112049.66;5049418;28;20531;-76
2022/05/05 09:47:52;;;;;;;15.10;11.03;;;18.30;70.30;;;-142.21;100.00;112049.66;5068147;28;20468;-76
2022/05/05 09:50:21;;;;;;;12.13;10.33;;;18.20;68.20;;;-142.21;100.00;112049.66;5051283;28;20463;-77
2022/05/05 09:58:26;;;;;;;14.63;11.87;;;18.30;69.10;;;-142.21;100.00;112049.66;5046944;28;20455;-77
2022/05/05 10:01:05;;;;;;;12.33;10.57;;;18.30;68.80;;;-142.21;100.00;112049.66;5052708;28;20432;-77
2022/05/05 10:04:01;;;;;;;12.67;10.70;;;18.50;69.00;;;-142.21;100.00;112049.66;5040045;28;20433;-76
2022/05/05 10:06:31;;;;;;;12.17;10.53;;;18.60;68.30;;;-142.21;100.00;112049.66;5032663;28;20805;-77
2022/05/05 10:09:04;;;;;;;14.83;11.90;;;18.70;68.40;;;-142.21;100.00;112049.66;5032855;28;20455;-76
2022/05/05 10:11:35;;;;;;;13.30;11.07;;;18.70;68.80;;;-142.21;100.00;112049.66;5046973;28;20910;-77
2022/05/05 10:14:07;;;;;;;13.53;10.60;;;18.80;67.60;;;-142.21;100.00;112049.66;5032563;28;20583;-76
2022/05/05 10:16:40;;;;;;;13.47;10.67;;;18.80;66.60;;;-142.21;100.00;112049.66;5032897;28;20418;-77
2022/05/05 10:19:08;;;;;;;14.07;11.40;;;18.80;66.90;;;-142.21;100.00;112049.66;5047820;28;20449;-78
2022/05/05 10:21:54;;;;;;;15.57;12.20;;;18.80;67.20;;;-142.21;100.00;112049.66;5046590;28;20449;-77
2022/05/05 10:24:27;;;;;;;13.30;11.50;;;18.60;67.50;;;-142.21;100.00;112049.66;5049830;28;20760;-78
2022/05/05 10:26:58;;;;;;;14.73;11.80;;;18.70;68.80;;;-142.21;100.00;112049.66;5049908;28;20571;-77